Annapolis, WA

3:07 PM PDT on July 30, 2016 (GMT -0700)
Boomers Landing | | Change Station

Elev 233 ft 47.51 °N, 122.66 °W | Updated 16 seconds ago

Clear
Clear
74.3 °F
Feels Like 77 °F
N
3.6
Wind Variable Wind from East
Gusts 4.9 mph

Today
High -- | Low -- °F
--% Chance of Precip.
Yesterday
High -- | Low -- °F
Precip. -- in
Pressure 29.98 in
Visibility 10.0 miles
Clouds Clear
Heat Index 77 °F
Dew Point 55 °F
Humidity 51%
Rainfall 0.00 in
Snow Depth Not available.
5:46 AM 8:46 PM
Waning Crescent, 10% visible
METAR KPWT 302155Z AUTO 21010KT 10SM CLR 23/12 A2998 RMK AO1
Pressure 29.98 in
Visibility 10.0 miles
Clouds Clear
Heat Index 77 °F
Dew Point 55 °F
Humidity 51%
Rainfall 0.00 in
Snow Depth Not available.
5:46 AM 8:46 PM
Waning Crescent, 10% visible
METAR KPWT 302155Z AUTO 21010KT 10SM CLR 23/12 A2998 RMK AO1

10-Day Weather Forecast

Almanac

Astronomy

Jul. 30, 2016 Rise Set
Actual Time
Civil Twilight
Nautical Twilight
Astronomical Twilight
Moon
Length of Visible Light
Length of Day
Tomorrow will be .
, % of the Moon is Illuminated

Today's Extremes

State Highs State Lows

Community

WunderPhotos

Upload Photos

1,928,659 photos uploaded!

WunderBlog® & News

Nearby

Air Quality

  Air Quality AQ Index Pollutant
Not available.

Snow Depth

Station Depth Elevation

Earthquake Activity

City Distance Mag. Time & Date
Minimum magnitude displayed is 2.5.

Coastal Water Temperatures

Place Temperature

Stations

Nearby Weather Stations

Station Location Temp. Windchill Dew Point Humidity Wind Precip. Elev Updated Type
                   

Watches & Warnings

There are currently no watches in effect.